Main page
METAR-TAF:

METAR-TAF

Airports :

Ancona, Italy

Falconara Airport

latitude: 43-37N, longitude: 013-22E, elevation: 12 m

Current weather observation

The report was made 54 minutes ago, at 19:50 UTC
Wind 3 kt from the South/Southeast, varying between East/Southeast and South/Southwest
Temperature 26°C
Humidity 79%
Pressure 1007 hPa
Visibility 10 km or more
no clouds below 1500 m and no cumulonimbus

METAR: LIPY 271950Z 15003KT 120V200 CAVOK 26/22 Q1007

Time: 22:44 (20:44 UTC)

Forecast

The report was made 3 hours and 44 minutes ago, at 17:00 UTC
Forecast valid from 27 at 18 UTC to 28 at 18 UTC
Wind 5 kt from variable directions
Visibility 10 km or more
Scattered clouds at a height of 3000 ft
Becoming
from 28 at 08 UTC to 28 at 10 UTC
Wind 16 kt from the Southeast
Temporary
from 28 at 12 UTC to 28 at 15 UTC
rain showers

TAF: LIPY 271700Z 2718/2818 VRB05KT 9999 SCT030 BECMG 2808/2810 14016KT TEMPO 2812/2815 SHRA

Weather observations and forecasts of more than 4000 airports (METAR and TAF reports).

The available stations are represented by yellow and red dots on the map.

Hover mouse over dot to see the name of the station.

Then click to see weather observations and forecasts.

To change the map : click on the green buttons with a black cross to zoom in, on the green button with a dash to zoom out, or on the green arrows for adjacent maps.


METAR-TAF: